Aérodrome :
LOGIN :

S'inscrire | Disclaimer

   EN    FR    IT 

 










Légende :    VFR   VFR Marginal   IFR   IFR Intensif   IFR Très Intensif
Visi : 
Plafond : 
>= 8 km
>= 3000ft
5 à 8 km
1000 à 3000 ft
1500m à 5 km
500 à 1000 ft
800 à 1500m
200 à 500 ft
< 800m
< 200 ft
Symboles :   Orages  Brouillard  Fortes neiges  Fortes précipitations  Vent > 20 kt
SIGMETs :   Divers  Orages  Givrage  Turbulence  Onde Orograph.  Cendres Volcan.






- Altitude de l'aérodrome : 768 ft
- Code IATA : MXP


LIMC - Milano Malpensa

DERNIER METAR :
  • 140020Z 02006KT CAVOK 02/02 Q1006 NOSIG

METARs EXPIRÉS :
  • 132350Z 03006KT CAVOK 01/01 Q1006 NOSIG
  • 132320Z 05005KT CAVOK 02/00 Q1006 NOSIG
  • 132250Z 04005KT CAVOK 01/M02 Q1006 NOSIG
  • 132220Z 02006KT CAVOK 00/M02 Q1006 NOSIG
  • 132150Z 01005KT CAVOK 01/M03 Q1005 NOSIG

TAF TAF LIMC
Valide du 14 à 00h jusqu'au 15 à 06h UTC


132300Z 1400/1506 35005KT CAVOK
BECMG 1414/1416 BKN012 BKN040
BECMG 1419/1421 13010KT 4000 RA



MET'MAP, la Météo Aéronautique d'un coup d'oeil ! - Copyright ORBIFLY Décembre 2007 - Disclaimer

ORBIFLY MET'MAP TEAM :

Programmation & Développement : Alexandra Zaïnal
Conception & Développement : Baudouin d'Aumeries
Co-Programmation & Développement : Marc-Olivier Méhu
Soutien technique & logistique : Manuel Goepfert

Contact : metmap@orbifly.com




SOURCES & CREDITS :

   NOAA